createdAt,value
2023-05-04T00:00:14.837Z,2.70
2023-05-04T00:02:43.421Z,3.67
2023-05-04T00:05:10.708Z,3.42
2023-05-04T00:07:37.867Z,3.53
2023-05-04T00:10:06.147Z,3.30
2023-05-04T00:12:33.586Z,3.30
2023-05-04T00:15:00.777Z,3.35
2023-05-04T00:17:27.917Z,3.35
2023-05-04T00:19:56.489Z,3.92
2023-05-04T00:22:23.748Z,3.72
2023-05-04T00:24:50.984Z,3.65
2023-05-04T00:27:18.117Z,3.60
2023-05-04T00:29:45.298Z,3.60
2023-05-04T00:32:12.548Z,3.65
2023-05-04T00:34:39.697Z,4.03
2023-05-04T00:37:08.310Z,4.03
2023-05-04T00:39:35.476Z,3.60
2023-05-04T00:42:02.628Z,4.05
2023-05-04T00:44:29.793Z,3.60
2023-05-04T00:46:57.193Z,4.75
2023-05-04T00:49:25.159Z,4.40
2023-05-04T00:51:54.369Z,3.72
2023-05-04T00:54:24.144Z,3.75
2023-05-04T00:56:51.688Z,4.00
2023-05-04T00:59:18.905Z,4.00
2023-05-04T01:01:46.081Z,3.63
2023-05-04T01:04:14.313Z,4.05
2023-05-04T01:06:47.190Z,4.13
2023-05-04T01:09:22.237Z,4.50
2023-05-04T01:11:58.393Z,4.43
2023-05-04T01:14:27.487Z,4.47
2023-05-04T01:16:57.925Z,3.83
2023-05-04T01:19:25.175Z,3.65
2023-05-04T01:21:53.779Z,4.13
2023-05-04T01:24:22.021Z,4.40
2023-05-04T01:26:53.066Z,3.78
2023-05-04T01:29:27.637Z,3.40
2023-05-04T01:31:56.221Z,4.50
2023-05-04T01:34:23.416Z,4.25
2023-05-04T01:36:51.262Z,4.45
2023-05-04T01:39:20.367Z,4.22
2023-05-04T01:41:47.505Z,4.25
2023-05-04T01:44:16.058Z,4.65
2023-05-04T01:46:43.272Z,4.40
2023-05-04T01:49:10.481Z,4.68
2023-05-04T01:51:37.660Z,4.72
2023-05-04T01:54:04.811Z,3.92
2023-05-04T01:56:33.454Z,4.32
2023-05-04T01:59:00.586Z,4.43
2023-05-04T02:01:27.809Z,4.35
2023-05-04T02:03:55.123Z,4.28
2023-05-04T02:06:22.408Z,3.58
2023-05-04T02:08:49.914Z,4.47
2023-05-04T02:11:17.214Z,4.35
2023-05-04T02:13:47.203Z,4.38
2023-05-04T02:16:14.409Z,4.55
2023-05-04T02:18:41.645Z,4.32
2023-05-04T02:21:09.108Z,4.68
2023-05-04T02:23:36.271Z,5.38
2023-05-04T02:26:03.466Z,4.05
2023-05-04T02:28:30.707Z,5.07
2023-05-04T02:30:59.268Z,5.28
2023-05-04T02:33:26.539Z,4.35
2023-05-04T02:35:53.700Z,4.72
2023-05-04T02:38:20.961Z,5.03
2023-05-04T02:40:48.112Z,5.28
2023-05-04T02:43:15.348Z,5.20
2023-05-04T02:45:42.519Z,4.88
2023-05-04T02:48:11.082Z,4.88
2023-05-04T02:50:38.314Z,4.47
2023-05-04T02:53:05.474Z,4.47
2023-05-04T02:55:32.690Z,5.25
2023-05-04T02:57:59.828Z,5.30
2023-05-04T03:00:26.987Z,4.75
2023-05-04T03:02:54.177Z,5.68
2023-05-04T03:05:22.900Z,4.70
2023-05-04T03:07:50.128Z,4.95
2023-05-04T03:10:17.325Z,4.70
2023-05-04T03:12:44.525Z,5.70
2023-05-04T03:15:11.709Z,5.30
2023-05-04T03:17:39.011Z,5.70
2023-05-04T03:20:07.678Z,4.70
2023-05-04T03:22:36.520Z,5.03
2023-05-04T03:25:04.897Z,5.22
2023-05-04T03:27:32.066Z,5.40
2023-05-04T03:29:59.301Z,5.65
2023-05-04T03:32:26.802Z,5.50
2023-05-04T03:34:54.390Z,5.25
2023-05-04T03:37:23.709Z,5.88
2023-05-04T03:39:52.255Z,4.90
2023-05-04T03:42:19.427Z,5.60
2023-05-04T03:44:47.617Z,6.45
2023-05-04T03:47:15.364Z,5.65
2023-05-04T03:49:42.507Z,5.32
2023-05-04T03:52:09.658Z,5.68
2023-05-04T03:54:38.190Z,5.78
2023-05-04T03:57:06.741Z,5.63
2023-05-04T03:59:35.575Z,5.43
2023-05-04T04:02:05.475Z,6.13
2023-05-04T04:04:32.735Z,5.82
2023-05-04T04:07:00.018Z,5.85
2023-05-04T04:09:30.131Z,5.55
2023-05-04T04:11:57.308Z,5.72
2023-05-04T04:14:26.232Z,5.82
2023-05-04T04:16:53.514Z,5.97
2023-05-04T04:19:20.677Z,5.95
2023-05-04T04:21:47.888Z,6.15
2023-05-04T04:24:15.154Z,5.55
2023-05-04T04:26:42.319Z,5.90
2023-05-04T04:29:09.490Z,5.35
2023-05-04T04:31:38.116Z,5.38
2023-05-04T04:34:05.278Z,5.82
2023-05-04T04:36:32.418Z,5.75
2023-05-04T04:38:59.577Z,7.60
2023-05-04T04:41:26.977Z,7.97
2023-05-04T04:43:54.290Z,8.80
2023-05-04T04:46:21.640Z,6.95
2023-05-04T04:48:50.164Z,5.45
2023-05-04T04:51:17.345Z,5.78
2023-05-04T04:53:44.503Z,6.75
2023-05-04T04:56:11.663Z,6.20
2023-05-04T04:58:38.886Z,6.35
2023-05-04T05:01:06.172Z,6.78
2023-05-04T05:03:33.358Z,6.03
2023-05-04T05:06:02.008Z,5.95
2023-05-04T05:08:29.192Z,6.93
2023-05-04T05:10:56.345Z,6.55
2023-05-04T05:13:23.565Z,6.38
2023-05-04T05:15:50.764Z,6.60
2023-05-04T05:18:17.938Z,6.60
2023-05-04T05:20:45.112Z,5.85
2023-05-04T05:23:13.633Z,6.13
2023-05-04T05:25:40.788Z,6.85
2023-05-04T05:28:07.927Z,7.18
2023-05-04T05:30:35.301Z,7.57
2023-05-04T05:33:02.531Z,6.88
2023-05-04T05:35:29.754Z,6.93
2023-05-04T05:37:58.640Z,6.10
2023-05-04T05:40:27.236Z,5.65
2023-05-04T05:42:54.722Z,5.53
2023-05-04T05:45:21.879Z,5.47
2023-05-04T05:47:49.141Z,6.22
2023-05-04T05:50:18.184Z,6.18
2023-05-04T05:52:45.370Z,6.00
2023-05-04T05:55:12.531Z,5.35
2023-05-04T05:57:41.152Z,6.40
2023-05-04T06:00:09.238Z,5.85
2023-05-04T06:02:39.387Z,5.68
2023-05-04T06:05:07.213Z,5.72
2023-05-04T06:07:34.451Z,5.60
2023-05-04T06:10:01.646Z,5.53
2023-05-04T06:12:28.872Z,6.20
2023-05-04T06:14:57.601Z,6.20
2023-05-04T06:17:24.824Z,6.35
2023-05-04T06:19:51.972Z,5.53
2023-05-04T06:22:19.179Z,5.50
2023-05-04T06:24:46.338Z,5.47
2023-05-04T06:27:13.480Z,5.63
2023-05-04T06:29:40.656Z,5.03
2023-05-04T06:32:09.884Z,5.32
2023-05-04T06:34:37.166Z,5.47
2023-05-04T06:37:04.394Z,5.80
2023-05-04T06:39:31.843Z,5.32
2023-05-04T06:41:59.191Z,4.82
2023-05-04T06:44:27.697Z,5.03
2023-05-04T06:46:54.980Z,5.45
2023-05-04T06:49:23.693Z,4.70
2023-05-04T06:51:50.914Z,5.97
2023-05-04T06:54:18.147Z,5.45
2023-05-04T06:56:45.315Z,5.70
2023-05-04T06:59:12.578Z,5.35
2023-05-04T07:01:39.922Z,4.88
2023-05-04T07:04:07.314Z,4.50
2023-05-04T07:06:35.988Z,4.60
2023-05-04T07:09:03.281Z,4.68
2023-05-04T07:11:30.572Z,4.38
2023-05-04T07:13:58.949Z,4.40
2023-05-04T07:16:26.277Z,4.30
2023-05-04T07:18:53.482Z,4.70
2023-05-04T07:21:27.648Z,4.68
2023-05-04T07:23:57.655Z,4.30
2023-05-04T07:26:24.816Z,4.20
2023-05-04T07:28:52.063Z,4.57
2023-05-04T07:31:19.231Z,5.10
2023-05-04T07:33:47.396Z,6.75
2023-05-04T07:36:14.660Z,13.43
2023-05-04T07:38:41.805Z,5.80
2023-05-04T07:41:10.347Z,7.38
2023-05-04T07:43:37.530Z,5.55
2023-05-04T07:46:04.744Z,6.63
2023-05-04T07:48:33.524Z,5.75
2023-05-04T07:51:00.715Z,7.40
2023-05-04T07:53:27.922Z,5.88
2023-05-04T07:55:55.177Z,5.30
2023-05-04T07:58:23.731Z,5.63
2023-05-04T08:00:50.911Z,6.93
2023-05-04T08:03:18.106Z,11.63
2023-05-04T08:05:45.615Z,5.00
2023-05-04T08:08:12.822Z,5.60
2023-05-04T08:10:40.435Z,6.95
2023-05-04T08:13:07.686Z,6.35
2023-05-04T08:15:36.264Z,9.23
2023-05-04T08:18:03.461Z,5.55
2023-05-04T08:20:30.649Z,4.88
2023-05-04T08:22:58.095Z,9.40
2023-05-04T08:25:25.358Z,6.55
2023-05-04T08:27:53.052Z,5.40
2023-05-04T08:30:20.347Z,5.10
2023-05-04T08:32:48.945Z,5.72
2023-05-04T08:35:16.378Z,4.40
2023-05-04T08:37:43.667Z,5.22
2023-05-04T08:40:12.004Z,5.50
2023-05-04T08:42:39.149Z,5.60
2023-05-04T08:45:07.760Z,5.55
2023-05-04T08:47:35.138Z,4.93
2023-05-04T08:50:04.337Z,5.03
2023-05-04T08:52:32.066Z,5.05
2023-05-04T08:54:59.332Z,4.60
2023-05-04T08:57:27.196Z,5.40
2023-05-04T08:59:55.445Z,5.05
2023-05-04T09:02:24.140Z,5.32
2023-05-04T09:04:52.523Z,5.55
2023-05-04T09:07:22.173Z,5.15
2023-05-04T09:09:49.670Z,5.95
2023-05-04T09:12:16.897Z,4.45
2023-05-04T09:14:44.126Z,4.38
2023-05-04T09:17:15.970Z,4.85
2023-05-04T09:19:43.605Z,5.20
2023-05-04T09:22:17.663Z,4.95
2023-05-04T09:24:46.525Z,4.50
2023-05-04T09:27:14.652Z,4.63
2023-05-04T09:29:42.067Z,4.18
2023-05-04T09:32:12.931Z,4.95
2023-05-04T09:34:50.206Z,5.00
2023-05-04T09:37:18.232Z,4.88
2023-05-04T09:39:54.042Z,4.10
2023-05-04T09:42:22.047Z,4.57
2023-05-04T09:45:03.103Z,4.38
2023-05-04T09:47:38.668Z,4.22
2023-05-04T09:50:19.126Z,4.20
2023-05-04T09:52:47.617Z,4.10
2023-05-04T09:55:17.306Z,4.18
2023-05-04T09:57:45.834Z,3.97
2023-05-04T10:00:14.674Z,4.28
2023-05-04T10:02:42.828Z,4.20
2023-05-04T10:05:14.551Z,3.72
2023-05-04T10:07:42.821Z,5.45
2023-05-04T10:10:12.012Z,4.75
2023-05-04T10:12:40.648Z,4.15
2023-05-04T10:15:09.331Z,3.63
2023-05-04T10:17:50.737Z,4.00
2023-05-04T10:20:29.952Z,4.75
2023-05-04T10:23:14.091Z,4.22
2023-05-04T10:25:56.986Z,3.88
2023-05-04T10:28:37.453Z,4.53
2023-05-04T10:31:05.021Z,4.72
2023-05-04T10:33:38.812Z,4.97
2023-05-04T10:36:06.776Z,4.32
2023-05-04T10:38:34.746Z,8.10
2023-05-04T10:41:12.633Z,3.90
2023-05-04T10:43:41.361Z,5.95
2023-05-04T10:46:16.904Z,4.20
2023-05-04T10:48:44.233Z,3.90
2023-05-04T10:51:18.030Z,4.18
2023-05-04T10:53:45.355Z,3.95
2023-05-04T10:56:20.302Z,4.60
2023-05-04T10:58:49.136Z,4.32
2023-05-04T11:01:16.524Z,3.70
2023-05-04T11:03:44.105Z,4.68
2023-05-04T11:06:23.211Z,3.85
2023-05-04T11:08:59.983Z,3.60
2023-05-04T11:11:27.380Z,4.00
2023-05-04T11:13:56.917Z,3.78
2023-05-04T11:16:24.975Z,4.70
2023-05-04T11:18:53.202Z,4.43
2023-05-04T11:21:24.234Z,3.60
2023-05-04T11:23:54.945Z,3.60
2023-05-04T11:26:22.262Z,3.20
2023-05-04T11:28:49.479Z,3.65
2023-05-04T11:31:19.839Z,3.50
2023-05-04T11:33:47.728Z,3.67
2023-05-04T11:36:15.237Z,3.20
2023-05-04T11:38:42.606Z,3.92
2023-05-04T11:41:09.952Z,3.47
2023-05-04T11:43:37.891Z,3.40
2023-05-04T11:46:06.804Z,3.33
2023-05-04T11:48:35.913Z,3.53
2023-05-04T11:51:04.283Z,3.25
2023-05-04T11:53:36.748Z,3.50
2023-05-04T11:56:04.391Z,3.45
2023-05-04T11:58:31.642Z,3.53
2023-05-04T12:00:59.102Z,3.88
2023-05-04T12:03:39.673Z,3.72
2023-05-04T12:06:16.302Z,3.40
2023-05-04T12:08:43.516Z,3.58
2023-05-04T12:11:11.905Z,3.70
2023-05-04T12:13:40.245Z,3.40
2023-05-04T12:16:11.668Z,3.30
2023-05-04T12:21:10.376Z,3.60
2023-05-04T12:23:40.160Z,3.60
2023-05-04T12:26:07.706Z,3.67
2023-05-04T12:28:35.608Z,3.85
2023-05-04T12:31:02.928Z,3.75
2023-05-04T12:33:30.656Z,3.60
2023-05-04T12:35:57.916Z,3.60
2023-05-04T12:38:25.158Z,3.88
2023-05-04T12:40:54.154Z,4.22
2023-05-04T12:43:21.334Z,3.63
2023-05-04T12:45:48.591Z,3.42
2023-05-04T12:48:15.778Z,3.55
2023-05-04T12:50:44.522Z,3.35
2023-05-04T12:53:11.752Z,3.60
2023-05-04T12:55:39.037Z,3.20
2023-05-04T12:58:07.532Z,3.20
2023-05-04T13:00:36.073Z,3.55
2023-05-04T13:03:03.533Z,3.42
2023-05-04T13:05:31.292Z,3.20
2023-05-04T13:07:58.452Z,3.40
2023-05-04T13:10:25.893Z,3.13
2023-05-04T13:12:53.137Z,3.53
2023-05-04T13:15:21.669Z,3.55
2023-05-04T13:17:48.959Z,3.42
2023-05-04T13:20:16.210Z,3.20
2023-05-04T13:22:46.136Z,3.00
2023-05-04T13:25:13.900Z,3.38
2023-05-04T13:27:41.230Z,3.15
2023-05-04T13:30:09.516Z,3.33
2023-05-04T13:32:38.133Z,4.05
2023-05-04T13:35:06.505Z,3.03
2023-05-04T13:37:33.866Z,3.00
2023-05-04T13:40:01.159Z,3.03
2023-05-04T13:42:28.310Z,3.13
2023-05-04T13:44:55.479Z,3.28
2023-05-04T13:47:23.965Z,3.13
2023-05-04T13:49:52.427Z,3.47
2023-05-04T13:52:19.584Z,3.33
2023-05-04T13:54:46.769Z,3.22
2023-05-04T13:57:13.946Z,3.15
2023-05-04T13:59:44.556Z,3.40
2023-05-04T14:02:13.841Z,3.10
2023-05-04T14:04:42.523Z,3.25
2023-05-04T14:07:12.881Z,3.17
2023-05-04T14:09:40.058Z,3.20
2023-05-04T14:12:07.258Z,3.70
2023-05-04T14:14:34.502Z,2.92
2023-05-04T14:17:01.783Z,3.42
2023-05-04T14:19:28.948Z,3.35
2023-05-04T14:21:56.098Z,4.18
2023-05-04T14:24:25.117Z,3.25
2023-05-04T14:26:52.287Z,3.10
2023-05-04T14:29:19.462Z,3.15
2023-05-04T14:31:46.662Z,3.67
2023-05-04T14:34:14.038Z,4.90
2023-05-04T14:36:41.202Z,3.28
2023-05-04T14:39:08.394Z,3.10
2023-05-04T14:41:36.916Z,3.40
2023-05-04T14:44:04.470Z,3.20
2023-05-04T14:46:32.117Z,3.40
2023-05-04T14:48:59.333Z,3.40
2023-05-04T14:51:26.905Z,3.35
2023-05-04T14:53:54.298Z,3.58
2023-05-04T14:56:21.484Z,3.70
2023-05-04T14:58:50.004Z,3.30
2023-05-04T15:01:17.164Z,3.75
2023-05-04T15:03:44.525Z,3.30
2023-05-04T15:06:11.733Z,3.10
2023-05-04T15:08:38.885Z,3.28
2023-05-04T15:11:06.064Z,3.28
2023-05-04T15:13:33.222Z,3.50
2023-05-04T15:16:01.801Z,3.50
2023-05-04T15:18:28.966Z,3.38
2023-05-04T15:20:56.139Z,3.38
2023-05-04T15:23:23.403Z,3.17
2023-05-04T15:25:50.717Z,3.50
2023-05-04T15:28:17.874Z,3.35
2023-05-04T15:30:45.039Z,3.70
2023-05-04T15:33:13.632Z,3.63
2023-05-04T15:35:40.794Z,3.50
2023-05-04T15:38:08.344Z,3.75
2023-05-04T15:40:35.750Z,3.40
2023-05-04T15:43:02.909Z,3.67
2023-05-04T15:45:30.036Z,3.58
2023-05-04T15:47:57.267Z,3.95
2023-05-04T15:50:25.880Z,3.35
2023-05-04T15:52:53.112Z,3.45
2023-05-04T15:55:25.988Z,3.53
2023-05-04T15:57:53.813Z,3.50
2023-05-04T16:00:21.679Z,13.77
2023-05-04T16:02:49.096Z,3.45
2023-05-04T16:05:16.366Z,3.58
2023-05-04T16:07:44.924Z,3.35
2023-05-04T16:10:12.314Z,3.40
2023-05-04T16:12:39.655Z,3.13
2023-05-04T16:15:07.453Z,3.60
2023-05-04T16:17:34.778Z,3.10
2023-05-04T16:20:02.005Z,4.72
2023-05-04T16:22:29.474Z,3.15
2023-05-04T16:24:58.087Z,3.60
2023-05-04T16:27:25.326Z,4.00
2023-05-04T16:29:52.530Z,3.10
2023-05-04T16:32:19.992Z,3.17
2023-05-04T16:34:47.289Z,3.00
2023-05-04T16:37:14.469Z,2.55
2023-05-04T16:39:41.660Z,3.05
2023-05-04T16:42:10.170Z,2.95
2023-05-04T16:44:37.312Z,3.33
2023-05-04T16:47:04.577Z,8.02
2023-05-04T16:49:31.745Z,2.90
2023-05-04T16:51:58.927Z,2.95
2023-05-04T16:54:26.201Z,2.95
2023-05-04T16:56:53.430Z,2.70
2023-05-04T16:59:22.024Z,2.80
2023-05-04T17:01:49.296Z,2.85
2023-05-04T17:04:16.510Z,2.63
2023-05-04T17:06:43.648Z,3.55
2023-05-04T17:09:10.794Z,2.63
2023-05-04T17:11:38.030Z,2.83
2023-05-04T17:14:05.262Z,3.15
2023-05-04T17:16:33.774Z,2.47
2023-05-04T17:19:00.955Z,2.88
2023-05-04T17:21:28.104Z,3.05
2023-05-04T17:23:55.240Z,3.28
2023-05-04T17:26:22.388Z,3.28
2023-05-04T17:28:49.542Z,3.03
2023-05-04T17:31:16.705Z,2.80
2023-05-04T17:33:45.185Z,3.15
2023-05-04T17:36:12.506Z,2.75
2023-05-04T17:38:39.846Z,2.38
2023-05-04T17:41:07.509Z,2.60
2023-05-04T17:43:35.014Z,3.10
2023-05-04T17:46:02.673Z,2.50
2023-05-04T17:48:30.250Z,2.63
2023-05-04T17:50:59.543Z,2.80
2023-05-04T17:53:27.596Z,2.58
2023-05-04T17:55:54.911Z,2.38
2023-05-04T17:58:22.147Z,2.40
2023-05-04T18:00:51.321Z,2.50
2023-05-04T18:03:20.316Z,2.83
2023-05-04T18:05:47.540Z,2.70
2023-05-04T18:08:16.092Z,2.75
2023-05-04T18:10:43.271Z,2.47
2023-05-04T18:13:10.478Z,2.50
2023-05-04T18:15:37.790Z,2.60
2023-05-04T18:18:05.012Z,2.55
2023-05-04T18:20:32.259Z,2.58
2023-05-04T18:22:59.539Z,2.55
2023-05-04T18:25:28.165Z,2.80
2023-05-04T18:27:55.308Z,2.63
2023-05-04T18:30:22.501Z,2.67
2023-05-04T18:32:49.727Z,2.55
2023-05-04T18:35:17.134Z,2.80
2023-05-04T18:37:44.314Z,2.45
2023-05-04T18:40:12.452Z,2.65
2023-05-04T18:42:40.992Z,2.88
2023-05-04T18:45:09.382Z,2.70
2023-05-04T18:47:36.738Z,2.72
2023-05-04T18:50:04.715Z,2.67
2023-05-04T18:52:32.219Z,3.30
2023-05-04T18:54:59.408Z,2.50
2023-05-04T18:57:28.279Z,2.60
2023-05-04T18:59:58.500Z,3.33
2023-05-04T19:02:25.768Z,2.58
2023-05-04T19:04:52.925Z,2.88
2023-05-04T19:07:20.101Z,2.72
2023-05-04T19:09:47.275Z,2.70
2023-05-04T19:12:14.443Z,2.60
2023-05-04T19:14:41.612Z,2.60
2023-05-04T19:17:10.190Z,2.80
2023-05-04T19:19:37.413Z,2.85
2023-05-04T19:22:04.572Z,2.58
2023-05-04T19:24:31.779Z,2.70
2023-05-04T19:26:58.968Z,2.60
2023-05-04T19:29:26.171Z,2.80
2023-05-04T19:31:53.627Z,2.92
2023-05-04T19:34:22.220Z,2.75
2023-05-04T19:36:49.460Z,2.80
2023-05-04T19:39:16.662Z,2.80
2023-05-04T19:41:43.914Z,2.60
2023-05-04T19:44:11.077Z,2.60
2023-05-04T19:46:38.408Z,2.30
2023-05-04T19:49:05.680Z,3.40
2023-05-04T19:51:34.236Z,2.80
2023-05-04T19:54:01.463Z,3.20
2023-05-04T19:56:28.687Z,2.97
2023-05-04T19:58:55.897Z,3.03
2023-05-04T20:01:23.161Z,3.03
2023-05-04T20:03:50.408Z,3.00
2023-05-04T20:06:17.547Z,3.28
2023-05-04T20:08:46.039Z,2.63
2023-05-04T20:11:13.245Z,2.92
2023-05-04T20:13:40.459Z,3.15
2023-05-04T20:16:07.705Z,3.30
2023-05-04T20:18:34.946Z,3.08
2023-05-04T20:21:02.125Z,3.28
2023-05-04T20:23:29.291Z,3.90
2023-05-04T20:25:57.783Z,3.47
2023-05-04T20:28:25.046Z,3.88
2023-05-04T20:30:52.257Z,3.65
2023-05-04T20:33:19.437Z,3.47
2023-05-04T20:35:46.644Z,3.85
2023-05-04T20:38:13.983Z,3.75
2023-05-04T20:40:41.286Z,3.38
2023-05-04T20:43:09.816Z,3.40
2023-05-04T20:45:37.060Z,3.70
2023-05-04T20:48:04.827Z,3.70
2023-05-04T20:50:32.038Z,4.00
2023-05-04T20:52:59.211Z,3.53
2023-05-04T20:55:26.786Z,2.88
2023-05-04T20:57:53.978Z,4.80
2023-05-04T21:00:22.722Z,4.25
2023-05-04T21:02:49.950Z,4.22
2023-05-04T21:05:17.172Z,3.50
2023-05-04T21:07:44.320Z,4.00
2023-05-04T21:10:11.513Z,3.20
2023-05-04T21:12:38.713Z,3.67
2023-05-04T21:15:06.602Z,4.50
2023-05-04T21:17:35.255Z,3.75
2023-05-04T21:20:02.420Z,3.72
2023-05-04T21:22:29.612Z,3.85
2023-05-04T21:24:56.842Z,3.83
2023-05-04T21:27:24.198Z,3.70
2023-05-04T21:29:51.426Z,4.30
2023-05-04T21:32:18.595Z,3.72
2023-05-04T21:34:51.948Z,3.72
2023-05-04T21:37:19.144Z,3.63
2023-05-04T21:39:46.268Z,3.90
2023-05-04T21:42:13.438Z,4.25
2023-05-04T21:44:40.626Z,4.03
2023-05-04T21:47:07.786Z,3.70
2023-05-04T21:49:34.946Z,3.75
2023-05-04T21:52:03.673Z,4.07
2023-05-04T21:54:30.806Z,3.60
2023-05-04T21:56:58.013Z,4.15
2023-05-04T21:59:25.162Z,4.30
2023-05-04T22:01:52.318Z,4.20
2023-05-04T22:04:19.630Z,4.25
2023-05-04T22:06:46.906Z,4.60
2023-05-04T22:09:15.480Z,4.32
2023-05-04T22:11:42.656Z,4.65
2023-05-04T22:14:09.891Z,4.40
2023-05-04T22:16:37.212Z,4.40
2023-05-04T22:19:04.392Z,4.70
2023-05-04T22:21:31.554Z,4.07
2023-05-04T22:23:59.015Z,4.50
2023-05-04T22:26:27.633Z,4.70
2023-05-04T22:28:54.806Z,4.88
2023-05-04T22:31:22.046Z,4.20
2023-05-04T22:33:49.236Z,4.45
2023-05-04T22:36:16.376Z,4.20
2023-05-04T22:38:43.548Z,4.90
2023-05-04T22:41:13.077Z,4.35
2023-05-04T22:43:41.560Z,4.50
2023-05-04T22:46:14.011Z,4.80
2023-05-04T22:48:41.196Z,4.55
2023-05-04T22:51:08.378Z,4.47
2023-05-04T22:53:35.559Z,4.53
2023-05-04T22:56:02.731Z,4.50
2023-05-04T22:58:29.951Z,4.35
2023-05-04T23:00:58.479Z,4.25
2023-05-04T23:03:25.775Z,4.45
2023-05-04T23:05:52.997Z,4.25
2023-05-04T23:08:20.116Z,4.07
2023-05-04T23:10:47.513Z,4.40
2023-05-04T23:13:14.745Z,4.75
2023-05-04T23:15:41.939Z,4.07
2023-05-04T23:18:10.487Z,4.63
2023-05-04T23:20:37.651Z,4.68
2023-05-04T23:23:04.833Z,4.70
2023-05-04T23:25:32.005Z,4.97
2023-05-04T23:27:59.323Z,4.50
2023-05-04T23:30:26.643Z,4.35
2023-05-04T23:32:53.802Z,4.13
2023-05-04T23:35:22.328Z,3.95
2023-05-04T23:37:49.475Z,4.35
2023-05-04T23:40:16.863Z,4.38
2023-05-04T23:42:44.102Z,4.35
2023-05-04T23:45:11.545Z,4.45
2023-05-04T23:47:38.859Z,4.55
2023-05-04T23:50:07.795Z,4.20
2023-05-04T23:52:36.504Z,4.10
2023-05-04T23:55:04.204Z,4.43
2023-05-04T23:57:31.342Z,4.65
2023-05-04T23:59:58.491Z,4.15
